createdAt,value
2022-11-15T00:00:49.521Z,0.44
2022-11-15T00:03:21.103Z,0.39
2022-11-15T00:05:49.691Z,0.39
2022-11-15T00:08:17.736Z,0.33
2022-11-15T00:10:55.755Z,0.24
2022-11-15T00:13:23.393Z,0.16
2022-11-15T00:15:51.485Z,0.12
2022-11-15T00:18:23.718Z,-0.01
2022-11-15T00:20:51.726Z,-0.02
2022-11-15T00:23:19.337Z,-0.10
2022-11-15T00:25:47.344Z,-0.15
2022-11-15T00:28:15.508Z,-0.33
2022-11-15T00:30:43.488Z,-0.46
2022-11-15T00:33:11.278Z,-0.63
2022-11-15T00:35:40.598Z,-0.76
2022-11-15T00:38:11.556Z,-0.72
2022-11-15T00:40:39.119Z,-0.89
2022-11-15T00:43:06.705Z,-1.02
2022-11-15T00:45:34.955Z,-1.11
2022-11-15T00:48:02.554Z,-1.23
2022-11-15T00:50:30.392Z,-1.35
2022-11-15T00:52:59.738Z,-1.34
2022-11-15T00:55:27.514Z,-1.29
2022-11-15T00:57:55.637Z,-1.28
2022-11-15T01:00:23.609Z,-1.36
2022-11-15T01:02:51.624Z,-1.45
2022-11-15T01:05:19.282Z,-1.47
2022-11-15T01:07:47.353Z,-1.53
2022-11-15T01:10:16.449Z,-1.49
2022-11-15T01:12:44.217Z,-1.48
2022-11-15T01:15:12.643Z,-1.57
2022-11-15T01:17:40.285Z,-1.65
2022-11-15T01:20:09.055Z,-1.66
2022-11-15T01:22:39.308Z,-1.71
2022-11-15T01:25:07.298Z,-1.90
2022-11-15T01:27:37.755Z,-1.87
2022-11-15T01:30:07.164Z,-1.80
2022-11-15T01:32:36.482Z,-1.66
2022-11-15T01:35:04.878Z,-1.52
2022-11-15T01:37:33.198Z,-1.52
2022-11-15T01:40:01.052Z,-1.54
2022-11-15T01:42:28.879Z,-1.49
2022-11-15T01:44:58.386Z,-1.41
2022-11-15T01:47:29.392Z,-1.52
2022-11-15T01:50:01.706Z,-1.46
2022-11-15T01:52:34.610Z,-1.52
2022-11-15T01:55:04.882Z,-1.50
2022-11-15T01:57:32.794Z,-1.46
2022-11-15T02:00:04.053Z,-1.39
2022-11-15T02:02:33.774Z,-1.33
2022-11-15T02:05:01.332Z,-1.31
2022-11-15T02:07:31.838Z,-1.26
2022-11-15T02:10:03.633Z,-1.18
2022-11-15T02:12:32.584Z,-1.05
2022-11-15T02:15:07.969Z,-0.91
2022-11-15T02:18:00.530Z,-0.76
2022-11-15T02:20:44.825Z,-0.70
2022-11-15T02:24:08.599Z,-0.66
2022-11-15T02:27:08.057Z,-0.49
2022-11-15T02:29:58.056Z,-0.45
2022-11-15T02:32:36.661Z,-0.26
2022-11-15T02:35:14.201Z,-0.18
2022-11-15T02:37:47.564Z,-0.18
2022-11-15T02:40:22.358Z,-0.25
2022-11-15T02:42:54.228Z,-0.30
2022-11-15T02:45:31.578Z,-0.21
2022-11-15T02:48:05.119Z,-0.07
2022-11-15T02:50:34.242Z,-0.18
2022-11-15T02:53:01.960Z,-0.04
2022-11-15T02:55:31.934Z,0.18
2022-11-15T02:58:18.331Z,0.33
2022-11-15T03:00:53.241Z,0.45
2022-11-15T03:03:47.789Z,0.31
2022-11-15T03:06:27.905Z,0.30
2022-11-15T03:09:03.736Z,0.37
2022-11-15T03:11:38.104Z,0.43
2022-11-15T03:14:19.917Z,0.52
2022-11-15T03:16:56.020Z,0.62
2022-11-15T03:19:31.196Z,0.54
2022-11-15T03:22:02.445Z,0.63
2022-11-15T03:24:34.372Z,0.69
2022-11-15T03:27:04.494Z,0.68
2022-11-15T03:29:36.911Z,0.66
2022-11-15T03:32:09.154Z,0.74
2022-11-15T03:34:43.891Z,0.73
2022-11-15T03:37:15.400Z,0.92
2022-11-15T03:39:43.501Z,1.08
2022-11-15T03:42:22.779Z,1.10
2022-11-15T03:44:55.998Z,1.28
2022-11-15T03:47:29.107Z,1.38
2022-11-15T03:50:01.083Z,1.42
2022-11-15T03:52:34.403Z,1.27
2022-11-15T03:55:04.739Z,1.31
2022-11-15T03:57:34.385Z,1.44
2022-11-15T04:00:01.992Z,1.53
2022-11-15T04:02:29.681Z,1.67
2022-11-15T04:04:59.095Z,1.73
2022-11-15T04:07:27.334Z,1.86
2022-11-15T04:09:55.600Z,2.02
2022-11-15T04:12:25.111Z,2.03
2022-11-15T04:14:53.535Z,2.05
2022-11-15T04:17:21.137Z,2.03
2022-11-15T04:19:50.439Z,1.99
2022-11-15T04:22:19.596Z,2.02
2022-11-15T04:24:47.274Z,2.02
2022-11-15T04:27:15.039Z,2.03
2022-11-15T04:29:42.881Z,2.03
2022-11-15T04:32:10.534Z,1.99
2022-11-15T04:34:38.680Z,1.95
2022-11-15T04:37:06.234Z,1.95
2022-11-15T04:39:35.484Z,1.94
2022-11-15T04:42:03.285Z,1.88
2022-11-15T04:44:31.303Z,1.82
2022-11-15T04:46:58.962Z,1.78
2022-11-15T04:49:26.754Z,1.75
2022-11-15T04:51:54.632Z,1.78
2022-11-15T04:54:22.414Z,1.76
2022-11-15T04:56:51.821Z,1.82
2022-11-15T04:59:19.632Z,1.82
2022-11-15T05:01:47.306Z,1.85
2022-11-15T05:04:14.988Z,1.88
2022-11-15T05:06:42.680Z,1.80
2022-11-15T05:09:10.974Z,1.88
2022-11-15T05:11:38.755Z,1.89
2022-11-15T05:14:07.759Z,1.83
2022-11-15T05:16:35.918Z,1.94
2022-11-15T05:19:07.380Z,1.97
2022-11-15T05:21:35.757Z,1.99
2022-11-15T05:24:04.689Z,2.03
2022-11-15T05:26:33.401Z,2.08
2022-11-15T05:29:00.996Z,2.10
2022-11-15T05:31:30.339Z,2.11
2022-11-15T05:34:01.998Z,2.15
2022-11-15T05:36:34.627Z,2.18
2022-11-15T05:39:03.684Z,2.21
2022-11-15T05:41:35.253Z,2.27
2022-11-15T05:44:04.513Z,2.29
2022-11-15T05:46:35.235Z,2.40
2022-11-15T05:49:03.371Z,2.35
2022-11-15T05:51:31.974Z,2.42
2022-11-15T05:54:01.343Z,2.51
2022-11-15T05:56:30.192Z,2.57
2022-11-15T05:59:00.037Z,2.65
2022-11-15T06:01:28.687Z,2.74
2022-11-15T06:03:57.651Z,2.86
2022-11-15T06:06:25.311Z,2.87
2022-11-15T06:08:52.842Z,3.00
2022-11-15T06:11:21.139Z,3.05
2022-11-15T06:13:50.335Z,3.12
2022-11-15T06:16:18.305Z,3.22
2022-11-15T06:18:45.884Z,3.35
2022-11-15T06:21:24.802Z,3.39
2022-11-15T06:23:52.597Z,3.36
2022-11-15T06:26:20.702Z,3.46
2022-11-15T06:28:49.837Z,3.52
2022-11-15T06:31:17.454Z,3.58
2022-11-15T06:33:45.102Z,3.72
2022-11-15T06:36:17.540Z,3.84
2022-11-15T06:38:49.325Z,3.95
2022-11-15T06:41:17.020Z,4.06
2022-11-15T06:43:45.026Z,4.14
2022-11-15T06:46:12.798Z,4.24
2022-11-15T06:48:42.245Z,4.28
2022-11-15T06:51:09.900Z,4.31
2022-11-15T06:53:38.102Z,4.39
2022-11-15T06:56:08.631Z,4.41
2022-11-15T06:58:37.655Z,4.51
2022-11-15T07:01:08.777Z,4.52
2022-11-15T07:03:38.472Z,4.61
2022-11-15T07:06:08.012Z,4.68
2022-11-15T07:08:37.013Z,4.64
2022-11-15T07:11:07.947Z,4.75
2022-11-15T07:13:36.835Z,4.77
2022-11-15T07:16:06.696Z,4.84
2022-11-15T07:18:35.102Z,4.88
2022-11-15T07:21:03.868Z,4.89
2022-11-15T07:23:32.599Z,4.94
2022-11-15T07:26:01.299Z,5.02
2022-11-15T07:28:30.792Z,5.02
2022-11-15T07:30:59.277Z,5.05
2022-11-15T07:33:26.825Z,5.14
2022-11-15T07:35:54.491Z,5.20
2022-11-15T07:38:22.275Z,5.35
2022-11-15T07:40:57.660Z,5.44
2022-11-15T07:43:26.197Z,5.38
2022-11-15T07:45:59.131Z,5.45
2022-11-15T07:48:42.183Z,5.44
2022-11-15T07:51:14.192Z,5.63
2022-11-15T07:53:42.599Z,5.60
2022-11-15T07:56:11.058Z,5.69
2022-11-15T07:58:38.706Z,5.78
2022-11-15T08:01:09.450Z,5.87
2022-11-15T08:03:37.512Z,5.83
2022-11-15T08:06:05.886Z,5.92
2022-11-15T08:08:33.712Z,6.05
2022-11-15T08:11:05.018Z,5.98
2022-11-15T08:13:33.944Z,5.97
2022-11-15T08:16:02.598Z,5.98
2022-11-15T08:18:31.904Z,5.99
2022-11-15T08:21:01.055Z,5.99
2022-11-15T08:23:29.043Z,6.17
2022-11-15T08:26:01.620Z,6.25
2022-11-15T08:28:29.968Z,6.23
2022-11-15T08:30:59.091Z,6.41
2022-11-15T08:33:27.403Z,6.66
2022-11-15T08:35:59.206Z,6.81
2022-11-15T08:38:27.248Z,6.88
2022-11-15T08:41:02.925Z,6.85
2022-11-15T08:43:30.998Z,6.91
2022-11-15T08:46:01.018Z,7.02
2022-11-15T08:48:29.015Z,6.98
2022-11-15T08:50:58.640Z,6.92
2022-11-15T08:53:26.215Z,6.98
2022-11-15T08:55:55.092Z,6.90
2022-11-15T08:58:22.841Z,6.97
2022-11-15T09:00:52.080Z,7.10
2022-11-15T09:03:20.412Z,7.13
2022-11-15T09:05:49.732Z,7.30
2022-11-15T09:08:45.964Z,7.50
2022-11-15T09:11:08.156Z,7.42
2022-11-15T09:13:35.990Z,7.59
2022-11-15T09:16:05.977Z,7.55
2022-11-15T09:18:34.654Z,7.72
2022-11-15T09:21:04.406Z,7.85
2022-11-15T09:23:34.393Z,7.94
2022-11-15T09:26:03.436Z,7.81
2022-11-15T09:28:32.328Z,7.88
2022-11-15T09:31:01.450Z,7.96
2022-11-15T09:33:30.857Z,8.05
2022-11-15T09:36:01.797Z,8.07
2022-11-15T09:38:30.437Z,8.25
2022-11-15T09:41:26.963Z,8.31
2022-11-15T09:44:08.085Z,8.31
2022-11-15T09:46:46.933Z,8.33
2022-11-15T09:49:16.979Z,8.38
2022-11-15T09:51:47.175Z,8.44
2022-11-15T09:54:52.788Z,8.45
2022-11-15T09:57:16.457Z,8.54
2022-11-15T10:00:12.415Z,8.60
2022-11-15T10:02:59.617Z,8.67
2022-11-15T10:05:27.386Z,8.75
2022-11-15T10:08:03.807Z,8.88
2022-11-15T10:10:39.432Z,8.83
2022-11-15T10:13:14.531Z,9.00
2022-11-15T10:15:44.689Z,9.04
2022-11-15T10:18:19.862Z,9.19
2022-11-15T10:20:50.579Z,9.26
2022-11-15T10:23:21.367Z,9.40
2022-11-15T10:25:51.653Z,9.47
2022-11-15T10:28:26.735Z,9.52
2022-11-15T10:30:56.652Z,9.57
2022-11-15T10:33:32.027Z,9.55
2022-11-15T10:36:18.731Z,9.62
2022-11-15T10:38:58.242Z,9.64
2022-11-15T10:41:38.852Z,9.66
2022-11-15T10:44:24.012Z,9.69
2022-11-15T10:47:38.877Z,9.78
2022-11-15T10:50:27.412Z,9.83
2022-11-15T10:52:55.582Z,9.99
2022-11-15T10:55:27.568Z,10.09
2022-11-15T10:58:00.150Z,10.15
2022-11-15T11:00:33.196Z,10.22
2022-11-15T11:03:03.604Z,10.23
2022-11-15T11:05:38.150Z,10.25
2022-11-15T11:08:22.926Z,10.31
2022-11-15T11:11:00.249Z,10.34
2022-11-15T11:13:31.825Z,10.42
2022-11-15T11:16:25.801Z,10.45
2022-11-15T11:19:04.850Z,10.49
2022-11-15T11:21:46.495Z,10.47
2022-11-15T11:24:22.961Z,10.46
2022-11-15T11:27:14.493Z,10.43
2022-11-15T11:29:59.820Z,10.37
2022-11-15T11:32:41.527Z,10.32
2022-11-15T11:35:15.101Z,10.28
2022-11-15T11:37:50.488Z,10.20
2022-11-15T11:40:28.802Z,10.13
2022-11-15T11:43:03.601Z,10.22
2022-11-15T11:45:54.949Z,10.21
2022-11-15T11:48:40.254Z,10.21
2022-11-15T11:51:14.041Z,10.16
2022-11-15T11:53:53.364Z,10.12
2022-11-15T11:56:29.798Z,10.05
2022-11-15T11:59:07.013Z,10.01
2022-11-15T12:01:42.034Z,10.01
2022-11-15T12:04:20.115Z,9.95
2022-11-15T12:06:53.109Z,9.90
2022-11-15T12:09:27.827Z,9.86
2022-11-15T12:12:03.803Z,9.85
2022-11-15T12:14:37.397Z,9.83
2022-11-15T12:17:05.312Z,9.84
2022-11-15T12:19:36.518Z,9.84
2022-11-15T12:22:10.138Z,9.81
2022-11-15T12:24:44.129Z,9.84
2022-11-15T12:27:24.953Z,9.83
2022-11-15T12:29:59.365Z,9.82
2022-11-15T12:32:31.626Z,9.82
2022-11-15T12:35:02.936Z,9.71
2022-11-15T12:37:35.505Z,9.78
2022-11-15T12:40:35.908Z,9.76
2022-11-15T12:43:26.507Z,9.76
2022-11-15T12:45:54.321Z,9.74
2022-11-15T12:48:50.426Z,9.68
2022-11-15T12:51:21.657Z,9.66
2022-11-15T12:53:51.416Z,9.66
2022-11-15T12:56:23.642Z,9.64
2022-11-15T12:58:57.934Z,9.63
2022-11-15T13:02:00.817Z,9.64
2022-11-15T13:04:31.102Z,9.65
2022-11-15T13:07:02.996Z,9.63
2022-11-15T13:10:01.052Z,9.62
2022-11-15T13:12:55.306Z,9.62
2022-11-15T13:15:55.535Z,9.61
2022-11-15T13:18:33.755Z,9.53
2022-11-15T13:21:04.885Z,9.59
2022-11-15T13:23:34.964Z,9.55
2022-11-15T13:26:13.838Z,9.50
2022-11-15T13:28:46.144Z,9.49
2022-11-15T13:31:25.762Z,9.46
2022-11-15T13:33:56.078Z,9.47
2022-11-15T13:36:26.791Z,9.42
2022-11-15T13:39:01.955Z,9.41
2022-11-15T13:41:32.251Z,9.36
2022-11-15T13:44:01.512Z,9.35
2022-11-15T13:46:30.298Z,9.20
2022-11-15T13:48:59.229Z,9.25
2022-11-15T13:51:38.250Z,9.20
2022-11-15T13:54:16.082Z,9.16
2022-11-15T13:56:47.875Z,9.10
2022-11-15T13:59:22.255Z,9.03
2022-11-15T14:01:51.669Z,9.00
2022-11-15T14:04:24.821Z,8.96
2022-11-15T14:06:56.259Z,8.90
2022-11-15T14:09:37.628Z,8.87
2022-11-15T14:12:27.597Z,8.82
2022-11-15T14:14:55.407Z,8.77
2022-11-15T14:17:37.944Z,8.73
2022-11-15T14:20:28.920Z,8.68
2022-11-15T14:22:58.909Z,8.65
2022-11-15T14:25:29.824Z,8.60
2022-11-15T14:28:31.766Z,8.45
2022-11-15T14:31:01.372Z,8.52
2022-11-15T14:33:31.386Z,8.41
2022-11-15T14:36:05.961Z,8.41
2022-11-15T14:38:35.007Z,8.37
2022-11-15T14:41:04.430Z,8.34
2022-11-15T14:43:32.268Z,8.31
2022-11-15T14:46:02.331Z,8.29
2022-11-15T14:48:30.606Z,8.26
2022-11-15T14:50:58.978Z,8.26
2022-11-15T14:53:26.617Z,8.23
2022-11-15T14:55:54.546Z,8.19
2022-11-15T14:58:24.138Z,8.12
2022-11-15T15:00:51.934Z,8.10
2022-11-15T15:03:19.774Z,8.08
2022-11-15T15:05:47.923Z,8.07
2022-11-15T15:08:15.604Z,8.04
2022-11-15T15:10:44.860Z,8.02
2022-11-15T15:13:18.072Z,8.04
2022-11-15T15:15:48.176Z,8.02
2022-11-15T15:18:16.509Z,8.00
2022-11-15T15:20:46.322Z,7.94
2022-11-15T15:23:19.168Z,7.93
2022-11-15T15:25:48.059Z,7.89
2022-11-15T15:28:15.901Z,7.90
2022-11-15T15:30:43.462Z,7.88
2022-11-15T15:33:12.826Z,7.76
2022-11-15T15:35:40.652Z,7.83
2022-11-15T15:38:12.423Z,7.80
2022-11-15T15:40:40.434Z,7.77
2022-11-15T15:43:08.232Z,7.77
2022-11-15T15:45:38.818Z,7.69
2022-11-15T15:48:06.875Z,7.74
2022-11-15T15:50:36.263Z,7.73
2022-11-15T15:53:05.070Z,7.71
2022-11-15T15:55:33.665Z,7.73
2022-11-15T15:58:01.425Z,7.72
2022-11-15T16:00:29.479Z,7.76
2022-11-15T16:03:00.956Z,7.71
2022-11-15T16:05:28.550Z,7.73
2022-11-15T16:07:57.559Z,7.68
2022-11-15T16:10:30.992Z,7.67
2022-11-15T16:13:01.152Z,7.68
2022-11-15T16:15:32.161Z,7.69
2022-11-15T16:18:01.489Z,7.71
2022-11-15T16:20:33.324Z,7.72
2022-11-15T16:23:08.789Z,7.71
2022-11-15T16:25:56.576Z,7.62
2022-11-15T16:28:26.318Z,7.54
2022-11-15T16:31:01.840Z,7.64
2022-11-15T16:33:29.886Z,7.60
2022-11-15T16:35:57.892Z,7.54
2022-11-15T16:38:27.103Z,7.55
2022-11-15T16:40:54.631Z,7.50
2022-11-15T16:43:22.525Z,7.52
2022-11-15T16:45:50.880Z,7.54
2022-11-15T16:48:23.111Z,7.51
2022-11-15T16:50:54.967Z,7.51
2022-11-15T16:53:23.080Z,7.51
2022-11-15T16:55:52.090Z,7.51
2022-11-15T16:58:19.831Z,7.46
2022-11-15T17:00:51.777Z,7.42
2022-11-15T17:03:19.901Z,7.42
2022-11-15T17:05:47.569Z,7.43
2022-11-15T17:08:15.240Z,7.39
2022-11-15T17:10:43.112Z,7.44
2022-11-15T17:13:14.455Z,7.41
2022-11-15T17:15:42.686Z,7.40
2022-11-15T17:18:12.511Z,7.38
2022-11-15T17:20:40.897Z,7.37
2022-11-15T17:23:12.643Z,7.38
2022-11-15T17:25:39.944Z,7.36
2022-11-15T17:28:07.648Z,7.35
2022-11-15T17:30:37.116Z,7.30
2022-11-15T17:33:05.206Z,7.30
2022-11-15T17:35:32.817Z,7.25
2022-11-15T17:38:01.259Z,7.24
2022-11-15T17:40:29.206Z,7.21
2022-11-15T17:42:56.779Z,7.17
2022-11-15T17:45:24.500Z,7.16
2022-11-15T17:47:53.502Z,7.08
2022-11-15T17:50:21.139Z,6.96
2022-11-15T17:52:49.698Z,6.95
2022-11-15T17:55:17.501Z,6.90
2022-11-15T17:57:45.961Z,6.85
2022-11-15T18:00:14.798Z,6.84
2022-11-15T18:02:42.394Z,6.81
2022-11-15T18:05:11.431Z,6.85
2022-11-15T18:07:39.301Z,6.83
2022-11-15T18:10:08.149Z,6.85
2022-11-15T18:12:36.070Z,6.86
2022-11-15T18:15:04.439Z,6.85
2022-11-15T18:17:32.070Z,6.89
2022-11-15T18:20:00.281Z,6.91
2022-11-15T18:22:29.557Z,6.91
2022-11-15T18:24:57.264Z,6.95
2022-11-15T18:27:24.983Z,6.94
2022-11-15T18:29:53.060Z,6.94
2022-11-15T18:32:21.430Z,6.94
2022-11-15T18:34:49.123Z,6.95
2022-11-15T18:37:17.164Z,6.96
2022-11-15T18:39:51.036Z,6.97
2022-11-15T18:42:20.377Z,6.98
2022-11-15T18:44:48.122Z,6.95
2022-11-15T18:47:15.792Z,6.95
2022-11-15T18:49:44.149Z,6.94
2022-11-15T18:52:11.728Z,6.92
2022-11-15T18:54:39.240Z,6.90
2022-11-15T18:57:08.845Z,6.89
2022-11-15T18:59:36.499Z,6.89
2022-11-15T19:02:04.079Z,6.85
2022-11-15T19:04:32.711Z,6.78
2022-11-15T19:07:00.407Z,6.79
2022-11-15T19:09:28.078Z,6.81
2022-11-15T19:11:56.420Z,6.75
2022-11-15T19:14:30.637Z,6.77
2022-11-15T19:16:58.870Z,6.76
2022-11-15T19:19:27.701Z,6.72
2022-11-15T19:21:55.534Z,6.71
2022-11-15T19:24:23.309Z,6.73
2022-11-15T19:26:51.053Z,6.66
2022-11-15T19:29:18.665Z,6.74
2022-11-15T19:31:47.900Z,6.66
2022-11-15T19:34:15.590Z,6.67
2022-11-15T19:36:45.753Z,6.64
2022-11-15T19:39:15.205Z,6.64
2022-11-15T19:41:43.896Z,6.65
2022-11-15T19:44:12.575Z,6.69
2022-11-15T19:46:41.097Z,6.70
2022-11-15T19:49:11.383Z,6.77
2022-11-15T19:51:40.157Z,6.79
2022-11-15T19:54:08.224Z,6.87
2022-11-15T19:56:37.048Z,6.93
2022-11-15T19:59:04.920Z,7.04
2022-11-15T20:01:34.739Z,7.10
2022-11-15T20:04:02.487Z,7.11
2022-11-15T20:06:33.565Z,7.14
2022-11-15T20:09:01.521Z,7.18
2022-11-15T20:11:31.791Z,7.20
2022-11-15T20:14:00.854Z,7.23
2022-11-15T20:16:30.145Z,7.27
2022-11-15T20:18:57.918Z,7.29
2022-11-15T20:21:26.056Z,7.32
2022-11-15T20:23:55.271Z,7.29
2022-11-15T20:26:23.007Z,7.27
2022-11-15T20:28:50.992Z,7.27
2022-11-15T20:31:18.854Z,7.28
2022-11-15T20:33:46.981Z,7.21
2022-11-15T20:36:15.580Z,7.20
2022-11-15T20:38:45.445Z,7.16
2022-11-15T20:41:14.854Z,7.16
2022-11-15T20:43:42.593Z,7.10
2022-11-15T20:46:10.852Z,7.12
2022-11-15T20:48:39.274Z,7.10
2022-11-15T20:51:09.918Z,7.06
2022-11-15T20:53:38.128Z,7.08
2022-11-15T20:56:09.804Z,7.11
2022-11-15T20:58:39.430Z,7.11
2022-11-15T21:01:09.002Z,7.16
2022-11-15T21:03:36.866Z,7.16
2022-11-15T21:06:04.917Z,7.15
2022-11-15T21:08:33.579Z,7.16
2022-11-15T21:11:02.402Z,7.13
2022-11-15T21:13:30.677Z,7.15
2022-11-15T21:16:03.410Z,7.04
2022-11-15T21:18:34.951Z,7.11
2022-11-15T21:21:03.922Z,7.09
2022-11-15T21:23:32.988Z,7.08
2022-11-15T21:26:01.764Z,7.06
2022-11-15T21:28:29.624Z,7.05
2022-11-15T21:31:00.372Z,7.01
2022-11-15T21:33:31.801Z,7.07
2022-11-15T21:35:59.331Z,7.06
2022-11-15T21:38:28.994Z,7.05
2022-11-15T21:40:57.513Z,7.03
2022-11-15T21:43:25.061Z,7.05
2022-11-15T21:45:56.646Z,7.07
2022-11-15T21:48:24.653Z,7.09
2022-11-15T21:50:58.355Z,7.09
2022-11-15T21:53:28.939Z,7.09
2022-11-15T21:55:56.508Z,6.99
2022-11-15T21:58:24.449Z,7.10
2022-11-15T22:00:55.026Z,7.09
2022-11-15T22:03:22.605Z,7.09
2022-11-15T22:05:51.017Z,7.09
2022-11-15T22:08:20.953Z,7.08
2022-11-15T22:10:50.720Z,7.11
2022-11-15T22:13:19.318Z,7.16
2022-11-15T22:15:48.616Z,7.15
2022-11-15T22:18:16.719Z,7.08
2022-11-15T22:20:53.361Z,7.25
2022-11-15T22:23:22.925Z,7.29
2022-11-15T22:25:50.757Z,7.32
2022-11-15T22:28:20.356Z,7.32
2022-11-15T22:30:50.191Z,7.33
2022-11-15T22:33:19.448Z,7.39
2022-11-15T22:35:48.805Z,7.39
2022-11-15T22:38:17.519Z,7.39
2022-11-15T22:40:46.905Z,7.41
2022-11-15T22:43:23.363Z,7.42
2022-11-15T22:45:55.117Z,7.45
2022-11-15T22:48:26.111Z,7.44
2022-11-15T22:50:54.500Z,7.45
2022-11-15T22:53:22.830Z,7.39
2022-11-15T22:55:53.914Z,7.43
2022-11-15T22:58:22.833Z,7.41
2022-11-15T23:00:51.443Z,7.37
2022-11-15T23:03:23.251Z,7.33
2022-11-15T23:05:51.822Z,7.28
2022-11-15T23:08:20.014Z,7.22
2022-11-15T23:10:49.685Z,7.15
2022-11-15T23:13:18.941Z,7.08
2022-11-15T23:16:08.939Z,6.81
2022-11-15T23:18:40.740Z,6.76
2022-11-15T23:21:10.465Z,6.57
2022-11-15T23:23:39.058Z,6.46
2022-11-15T23:26:07.756Z,6.40
2022-11-15T23:28:37.352Z,6.29
2022-11-15T23:31:06.415Z,6.23
2022-11-15T23:33:35.190Z,6.00
2022-11-15T23:36:03.634Z,5.88
2022-11-15T23:38:33.628Z,5.83
2022-11-15T23:41:01.711Z,5.74
2022-11-15T23:43:56.299Z,5.75
2022-11-15T23:46:23.976Z,5.86
2022-11-15T23:48:52.567Z,5.91
2022-11-15T23:51:24.061Z,5.94
2022-11-15T23:53:52.247Z,5.98
2022-11-15T23:56:20.730Z,5.97
